Terminal Aerodrome Forecast
Issued by NWS

Home | Current Version | Previous Version | Graphics & Text | Print | Product List | Glossary On
Versions: 1 2 3 4 5 6 7 8 9 10 11 12 13 14 15 16 17 18 19 20 21
000
FTUS43 KMPX 300500
TAFAXN
TAF
KAXN 300534Z 3006/0106 11012KT P6SM OVC009
     FM301400 12014KT P6SM SCT009 OVC015
     FM301600 12016G25KT P6SM SCT015 SCT035
     FM302100 13015G23KT 6SM -SHRA BR SCT025 BKN050
      TEMPO 0102/0106 4SM -RA BR SCT020 BKN030=

USA.gov is the U.S. government's official web portal to all federal, state and local government web resources and services.